POGODA: Poland

Lotnisko: Katowice

METAR KOD: EPKT


METAR: EPKT 231130Z 02009KT 7000 -DZ SCT003 BKN005 05/04 Q1016


BLOK
Pogoda METAR
231130Z
Dzien: 23, Godzina: 11:30 UTC.
02009KT
Wiatr z kierunku 020, o predkosci 17 km/h
7000
Widzialnosc pozioma 7000 m.
-DZ
slab. mzawka
SCT003
3/8 - 4/8 pokrycia nieba, chmurami o podstawie: 90 metrow
BKN005
5/8 - 7/8 pokrycia nieba, chmurami o podstawie: 150 metrow
05/04
Temperatura: powietrze 5°C, punkt rosy 4°C . Wilgotnosc wzgledna 80 %
Q1016
Cisnienie: 1016 hPa

Pogoda na innym lotnisku

Pogoda Gdansk-Rebiechowo WEATHER Poland  
Pogoda Katowice WEATHER Poland  
Pogoda Krakow WEATHER Poland  
Pogoda Poznan WEATHER Poland  
Pogoda Rzeszow-Jasionka WEATHER Poland  
Pogoda Szczecin WEATHER Poland  
Pogoda Warszawa-Okecie WEATHER Poland  
Pogoda Wroclaw Ii WEATHER Poland  

Pogoda w inny kraju

Strona startowa

(C) by GREGOR 2007
Ogłoszenia Towarzyskie